Time;durP1;ratioP1;P1;durP2;ratioP2;P2;SDS_P1;SDS_P2;PMS_P1;PMS_P2;Temp;Humidity;BMP_temperature;BMP_pressure;BME280_temperature;BME280_humidity;BME280_pressure;Samples;Min_cycle;Max_cycle;Signal;HPM_P1;HPM_P2
2023/10/19 00:01:26;;;;;;;13.45;10.02;;;11.50;99.90;;;;;;5051249;28;20049;-75
2023/10/19 00:03:55;;;;;;;10.50;8.30;;;11.50;99.90;;;;;;5051973;28;20049;-74
2023/10/19 00:06:23;;;;;;;13.45;10.00;;;11.50;99.90;;;;;;5051096;28;20132;-73
2023/10/19 00:08:52;;;;;;;15.60;11.25;;;11.50;99.90;;;;;;5051546;28;20114;-74
2023/10/19 00:11:25;;;;;;;16.83;11.52;;;11.60;99.90;;;;;;5049663;28;20341;-74
2023/10/19 00:13:54;;;;;;;18.05;12.18;;;11.60;99.90;;;;;;5051597;28;20029;-74
2023/10/19 00:16:23;;;;;;;16.67;9.48;;;11.60;99.90;;;;;;5050785;28;20020;-74
2023/10/19 00:18:50;;;;;;;15.75;11.35;;;11.60;99.90;;;;;;5051837;28;20032;-74
2023/10/19 00:21:26;;;;;;;16.17;11.35;;;11.60;99.90;;;;;;5050999;28;20482;-74
2023/10/19 00:23:57;;;;;;;14.40;10.30;;;11.70;99.90;;;;;;5050146;28;20560;-74
2023/10/19 00:26:30;;;;;;;15.15;10.68;;;11.70;99.90;;;;;;5050805;28;20028;-74
2023/10/19 00:28:56;;;;;;;14.75;11.45;;;11.70;99.90;;;;;;5051327;28;20013;-74
2023/10/19 00:31:29;;;;;;;16.60;11.13;;;11.70;99.90;;;;;;5050738;28;20020;-74
2023/10/19 00:33:56;;;;;;;15.02;10.82;;;11.70;99.90;;;;;;5051452;28;20100;-74
2023/10/19 00:36:22;;;;;;;16.63;11.63;;;11.70;99.90;;;;;;5050287;28;20021;-74
2023/10/19 00:41:31;;;;;;;14.60;10.07;;;11.80;99.90;;;;;;5050496;28;20036;-73
2023/10/19 00:44:10;;;;;;;21.73;13.55;;;11.80;99.90;;;;;;5050948;28;20413;-74
2023/10/19 00:49:12;;;;;;;13.95;10.77;;;11.80;99.90;;;;;;5051449;28;20025;-73
2023/10/19 00:52:24;;;;;;;18.73;12.88;;;11.80;99.90;;;;;;5050693;28;20092;-73
2023/10/19 00:57:19;;;;;;;17.75;12.48;;;11.80;99.90;;;;;;5050120;28;20394;-74
2023/10/19 01:00:00;;;;;;;13.77;10.93;;;11.90;99.90;;;;;;5050788;28;20032;-73
2023/10/19 01:04:56;;;;;;;21.73;13.80;;;11.80;99.90;;;;;;5050888;28;20482;-73
2023/10/19 01:09:56;;;;;;;20.95;13.40;;;11.90;99.90;;;;;;5050723;28;20056;-72
2023/10/19 01:12:25;;;;;;;21.85;13.98;;;11.80;99.90;;;;;;5049954;28;20489;-73
2023/10/19 01:17:57;;;;;;;20.30;13.63;;;11.90;99.90;;;;;;5050058;28;20120;-74
2023/10/19 01:31:15;;;;;;;20.42;12.20;;;12.00;99.90;;;;;;5050279;28;20028;-73
2023/10/19 01:33:41;;;;;;;24.95;13.45;;;12.00;99.90;;;;;;5050216;28;20568;-73
2023/10/19 01:36:11;;;;;;;25.73;15.50;;;12.00;99.90;;;;;;5050274;28;20029;-73
2023/10/19 01:38:38;;;;;;;19.92;12.50;;;12.10;99.90;;;;;;5048682;28;20021;-74
2023/10/19 01:41:23;;;;;;;20.35;12.40;;;12.10;99.90;;;;;;5049970;28;20021;-74
2023/10/19 01:43:54;;;;;;;16.98;11.60;;;12.10;99.90;;;;;;5048759;28;20029;-73
2023/10/19 01:46:22;;;;;;;22.88;14.25;;;12.10;99.90;;;;;;5048433;28;20025;-73
2023/10/19 01:48:55;;;;;;;31.95;16.15;;;12.20;99.90;;;;;;5051166;28;20017;-74
2023/10/19 01:51:26;;;;;;;20.83;12.57;;;12.20;99.90;;;;;;5052527;28;20025;-73
2023/10/19 01:53:52;;;;;;;;;;;12.20;99.90;;;;;;5054844;28;20025;-74
2023/10/19 01:56:19;;;;;;;14.73;10.43;;;12.20;99.90;;;;;;5053695;28;19997;-73
2023/10/19 01:58:49;;;;;;;28.58;15.60;;;12.20;99.90;;;;;;5053786;28;20075;-73
2023/10/19 02:03:44;;;;;;;27.20;14.63;;;12.30;99.90;;;;;;5053907;28;20540;-73
2023/10/19 02:06:19;;;;;;;18.95;11.82;;;12.30;99.90;;;;;;5053844;28;20033;-73
2023/10/19 02:08:51;;;;;;;16.67;11.18;;;12.30;99.90;;;;;;5052495;28;20028;-73
2023/10/19 02:11:22;;;;;;;16.65;10.20;;;12.30;99.90;;;;;;5053969;28;20032;-73
2023/10/19 02:13:51;;;;;;;20.30;13.13;;;12.40;99.90;;;;;;5052379;28;20119;-74
2023/10/19 02:16:32;;;;;;;23.70;14.35;;;12.40;99.90;;;;;;5053656;28;20028;-74
2023/10/19 02:18:58;;;;;;;18.63;12.60;;;12.40;99.90;;;;;;5053683;28;20020;-73
2023/10/19 02:21:30;;;;;;;26.85;14.75;;;12.40;99.90;;;;;;5053275;28;20020;-74
2023/10/19 02:23:57;;;;;;;16.02;10.57;;;12.40;99.90;;;;;;5053595;28;20021;-73
2023/10/19 02:26:25;;;;;;;19.67;12.30;;;12.50;99.90;;;;;;5053688;28;20142;-73
2023/10/19 02:28:52;;;;;;;23.58;14.10;;;12.50;99.90;;;;;;5053377;28;20487;-73
2023/10/19 02:31:19;;;;;;;24.65;13.75;;;12.50;99.90;;;;;;5051964;28;20562;-74
2023/10/19 02:33:46;;;;;;;25.60;14.73;;;12.60;99.90;;;;;;5051719;28;20434;-73
2023/10/19 02:36:16;;;;;;;26.42;14.70;;;12.60;99.90;;;;;;5051614;28;20028;-73
2023/10/19 02:38:48;;;;;;;20.27;12.48;;;12.60;99.90;;;;;;5052908;28;20075;-73
2023/10/19 02:41:17;;;;;;;32.63;15.18;;;12.70;99.90;;;;;;5051616;28;20107;-73
2023/10/19 02:43:51;;;;;;;27.45;14.73;;;12.70;99.90;;;;;;5052975;28;20033;-73
2023/10/19 02:46:17;;;;;;;21.15;12.30;;;12.70;99.90;;;;;;5053040;28;20028;-73
2023/10/19 02:48:44;;;;;;;28.48;14.90;;;12.70;99.90;;;;;;5052734;28;20092;-73
2023/10/19 02:51:13;;;;;;;29.98;14.70;;;12.80;99.90;;;;;;5053033;28;20025;-73
2023/10/19 02:53:42;;;;;;;28.77;13.82;;;12.90;99.90;;;;;;5052674;28;20086;-73
2023/10/19 02:56:19;;;;;;;21.13;12.50;;;12.90;99.90;;;;;;5053156;28;20066;-74
2023/10/19 02:58:49;;;;;;;17.92;10.68;;;12.90;99.90;;;;;;5051135;28;20402;-73
2023/10/19 03:01:21;;;;;;;18.48;12.10;;;12.90;99.90;;;;;;5052497;28;20021;-73
2023/10/19 03:03:51;;;;;;;27.88;12.25;;;12.90;99.90;;;;;;5052447;28;20021;-73
2023/10/19 03:06:23;;;;;;;19.70;9.82;;;13.00;99.90;;;;;;5050943;28;20019;-73
2023/10/19 03:08:57;;;;;;;11.82;7.05;;;13.00;99.90;;;;;;5052381;28;20039;-73
2023/10/19 03:11:25;;;;;;;13.10;8.05;;;13.00;99.90;;;;;;5052644;28;20044;-74
2023/10/19 03:13:54;;;;;;;12.45;7.78;;;13.10;99.90;;;;;;5052218;28;20451;-73
2023/10/19 03:16:21;;;;;;;12.70;7.47;;;13.20;99.90;;;;;;5052593;28;20021;-73
2023/10/19 03:18:47;;;;;;;12.75;6.97;;;13.30;99.90;;;;;;5052216;28;20474;-73
2023/10/19 03:21:13;;;;;;;13.02;7.03;;;13.40;99.90;;;;;;5052417;28;20029;-74
2023/10/19 03:23:40;;;;;;;11.23;6.75;;;13.40;99.90;;;;;;5052197;28;20021;-74
2023/10/19 03:29:14;;;;;;;10.32;5.45;;;13.60;99.90;;;;;;5052473;28;20040;-74
2023/10/19 03:31:48;;;;;;;11.57;6.05;;;13.60;99.90;;;;;;5052206;28;20325;-74
2023/10/19 03:34:16;;;;;;;7.63;5.03;;;13.70;99.90;;;;;;5052244;28;20021;-74
2023/10/19 03:36:42;;;;;;;13.50;5.75;;;13.80;99.90;;;;;;5051881;28;20028;-74
2023/10/19 03:39:17;;;;;;;8.95;4.57;;;13.80;99.90;;;;;;5052207;28;20393;-73
2023/10/19 03:41:44;;;;;;;8.27;4.00;;;13.80;99.90;;;;;;5051801;28;20059;-73
2023/10/19 03:44:19;;;;;;;7.55;3.65;;;13.90;99.90;;;;;;5051920;28;20486;-73
2023/10/19 03:46:57;;;;;;;9.77;4.55;;;14.00;99.90;;;;;;5051711;28;20035;-73
2023/10/19 03:49:26;;;;;;;9.77;4.53;;;14.00;99.90;;;;;;5051915;28;20032;-73
2023/10/19 03:51:58;;;;;;;10.02;3.58;;;14.00;99.90;;;;;;5050405;28;20087;-73
2023/10/19 03:54:28;;;;;;;11.43;4.13;;;14.00;99.90;;;;;;5051994;28;20044;-73
2023/10/19 03:56:56;;;;;;;11.75;4.53;;;14.10;99.90;;;;;;5051552;28;20059;-74
2023/10/19 03:59:23;;;;;;;7.45;4.22;;;14.10;99.90;;;;;;5051798;28;20017;-73
2023/10/19 04:01:49;;;;;;;14.85;5.38;;;14.10;99.90;;;;;;5050114;28;20521;-73
2023/10/19 04:04:16;;;;;;;8.68;5.57;;;14.10;99.90;;;;;;5051525;28;20017;-73
2023/10/19 04:06:47;;;;;;;11.55;5.60;;;14.10;99.90;;;;;;5051534;28;20021;-74
2023/10/19 04:09:16;;;;;;;9.88;5.72;;;14.10;99.90;;;;;;5051580;28;20104;-73
2023/10/19 04:11:48;;;;;;;10.43;6.65;;;14.10;99.90;;;;;;5050756;28;20071;-73
2023/10/19 04:14:15;;;;;;;13.80;7.45;;;14.10;99.90;;;;;;5051426;28;20086;-73
2023/10/19 04:16:43;;;;;;;13.45;7.25;;;14.00;99.90;;;;;;5041762;28;20018;-74
2023/10/19 04:19:10;;;;;;;11.93;6.70;;;14.00;99.90;;;;;;5047388;28;20128;-74
2023/10/19 04:21:38;;;;;;;12.20;7.32;;;14.00;99.90;;;;;;5049923;28;20450;-73
2023/10/19 04:24:07;;;;;;;16.35;8.07;;;13.90;99.90;;;;;;5050938;28;20029;-73
2023/10/19 04:26:37;;;;;;;16.02;7.53;;;13.90;99.90;;;;;;5051181;28;20096;-74
2023/10/19 04:29:10;;;;;;;16.17;7.37;;;13.90;99.90;;;;;;5050731;28;20017;-74
2023/10/19 04:31:49;;;;;;;9.50;6.50;;;13.90;99.90;;;;;;5051110;28;20776;-74
2023/10/19 04:34:20;;;;;;;14.50;7.43;;;13.90;99.90;;;;;;5050986;28;20023;-74
2023/10/19 04:36:52;;;;;;;13.68;6.35;;;13.90;99.90;;;;;;5050923;28;20039;-73
2023/10/19 04:39:21;;;;;;;12.38;6.50;;;13.90;99.90;;;;;;5051076;28;20071;-73
2023/10/19 04:41:49;;;;;;;13.38;7.47;;;13.80;99.90;;;;;;5049440;28;20566;-73
2023/10/19 04:44:15;;;;;;;11.30;7.13;;;13.90;99.90;;;;;;5050756;28;20276;-73
2023/10/19 04:46:42;;;;;;;13.40;7.38;;;13.90;99.90;;;;;;5051109;28;20246;-73
2023/10/19 04:49:08;;;;;;;14.75;6.85;;;13.90;99.90;;;;;;5050497;28;20021;-73
2023/10/19 04:51:38;;;;;;;13.25;7.43;;;13.90;99.90;;;;;;5050692;28;20040;-74
2023/10/19 04:54:08;;;;;;;13.40;7.85;;;13.90;99.90;;;;;;5050464;28;20477;-73
2023/10/19 04:56:35;;;;;;;15.73;7.88;;;14.00;99.90;;;;;;5050982;28;20029;-73
2023/10/19 04:59:02;;;;;;;11.65;7.45;;;13.90;99.90;;;;;;5050701;28;20031;-74
2023/10/19 05:01:28;;;;;;;14.13;7.70;;;14.00;99.90;;;;;;5049481;28;20013;-73
2023/10/19 05:03:53;;;;;;;17.05;8.60;;;14.00;99.90;;;;;;5036433;28;20040;-73
2023/10/19 05:06:19;;;;;;;11.77;7.40;;;14.00;99.90;;;;;;5050722;28;20021;-73
2023/10/19 05:08:46;;;;;;;19.17;8.95;;;14.00;99.90;;;;;;5050403;28;20429;-73
2023/10/19 05:11:12;;;;;;;18.25;9.05;;;13.90;99.90;;;;;;5049527;28;20115;-74
2023/10/19 05:13:38;;;;;;;13.18;8.02;;;13.90;99.90;;;;;;5050114;28;20533;-73
2023/10/19 05:16:05;;;;;;;14.65;8.75;;;13.90;99.90;;;;;;5050253;28;20116;-73
2023/10/19 05:18:30;;;;;;;15.23;8.90;;;13.80;99.90;;;;;;5049972;28;20032;-73
2023/10/19 05:20:56;;;;;;;15.73;8.40;;;13.80;99.90;;;;;;5050731;28;20032;-73
2023/10/19 05:23:26;;;;;;;20.13;8.63;;;13.80;99.90;;;;;;5049618;28;20382;-74
2023/10/19 05:26:02;;;;;;;12.77;8.25;;;13.80;99.90;;;;;;5050412;28;20128;-73
2023/10/19 05:28:28;;;;;;;14.60;7.72;;;13.70;99.90;;;;;;5049242;28;20104;-74
2023/10/19 05:30:54;;;;;;;12.50;7.63;;;13.70;99.90;;;;;;5049553;28;20476;-73
2023/10/19 05:33:23;;;;;;;12.60;7.75;;;13.70;99.90;;;;;;5050151;28;20028;-74
2023/10/19 05:35:50;;;;;;;10.27;6.22;;;13.70;99.90;;;;;;5050146;28;20044;-74
2023/10/19 05:38:16;;;;;;;13.10;6.70;;;13.70;99.90;;;;;;5049413;28;20129;-73
2023/10/19 05:40:45;;;;;;;11.50;6.05;;;13.70;99.90;;;;;;5049887;28;20504;-74
2023/10/19 05:43:11;;;;;;;14.18;7.15;;;13.70;99.90;;;;;;5047674;28;20448;-74
2023/10/19 05:45:38;;;;;;;10.35;5.75;;;13.70;99.90;;;;;;5049371;28;20119;-73
2023/10/19 05:48:06;;;;;;;13.15;6.70;;;13.70;99.90;;;;;;5047464;28;20069;-74
2023/10/19 05:50:35;;;;;;;13.18;5.90;;;13.70;99.90;;;;;;5049514;28;20067;-74
2023/10/19 05:53:03;;;;;;;17.23;5.90;;;13.70;99.90;;;;;;5049210;28;20371;-74
2023/10/19 05:55:29;;;;;;;15.93;6.88;;;13.80;99.90;;;;;;5049684;28;20100;-74
2023/10/19 05:57:55;;;;;;;12.82;6.25;;;13.80;99.90;;;;;;5047783;28;20448;-74
2023/10/19 06:00:21;;;;;;;14.10;5.13;;;13.80;99.90;;;;;;5048535;28;20021;-74
2023/10/19 06:02:51;;;;;;;13.55;5.53;;;13.80;99.90;;;;;;5047798;28;20040;-74
2023/10/19 06:05:17;;;;;;;10.83;5.43;;;13.90;99.90;;;;;;5050042;28;20040;-74
2023/10/19 06:07:48;;;;;;;9.98;4.55;;;13.90;99.90;;;;;;5046952;28;20049;-74
2023/10/19 06:10:15;;;;;;;11.95;4.80;;;13.90;99.90;;;;;;5041781;28;20520;-74
2023/10/19 06:12:43;;;;;;;11.38;5.53;;;13.90;99.90;;;;;;5048451;28;20044;-74
2023/10/19 06:15:10;;;;;;;10.00;5.07;;;14.00;99.90;;;;;;5058074;28;20021;-74
2023/10/19 06:17:37;;;;;;;13.52;4.97;;;14.00;99.90;;;;;;5049230;28;20034;-74
2023/10/19 06:20:05;;;;;;;10.32;5.05;;;14.00;99.90;;;;;;5044314;28;20078;-73
2023/10/19 06:22:30;;;;;;;10.27;3.72;;;14.10;99.90;;;;;;5048777;28;20036;-74
2023/10/19 06:24:56;;;;;;;10.35;4.50;;;14.10;99.90;;;;;;5047999;28;20474;-76
2023/10/19 06:27:23;;;;;;;10.70;3.63;;;14.10;99.90;;;;;;5047648;28;20029;-74
2023/10/19 06:29:49;;;;;;;5.88;2.83;;;14.20;99.90;;;;;;5048458;28;20075;-74
2023/10/19 06:32:15;;;;;;;13.85;3.83;;;14.20;99.90;;;;;;5049062;28;20048;-74
2023/10/19 06:34:41;;;;;;;11.38;3.83;;;14.20;99.90;;;;;;5049784;28;20537;-74
2023/10/19 06:37:09;;;;;;;13.95;3.97;;;14.20;99.90;;;;;;5052431;28;20046;-74
2023/10/19 06:39:34;;;;;;;12.35;3.47;;;14.30;99.90;;;;;;5052183;28;20110;-73
2023/10/19 06:42:00;;;;;;;11.07;3.50;;;14.30;99.90;;;;;;5051517;28;20490;-74
2023/10/19 06:44:25;;;;;;;12.25;4.35;;;14.30;99.90;;;;;;5052776;28;20021;-74
2023/10/19 06:46:52;;;;;;;7.95;3.55;;;14.30;99.90;;;;;;5053003;28;20489;-74
2023/10/19 06:49:17;;;;;;;13.23;3.80;;;14.30;99.90;;;;;;5052470;28;20044;-74
2023/10/19 06:51:43;;;;;;;11.00;3.00;;;14.40;99.90;;;;;;5047026;28;20031;-74
2023/10/19 06:54:08;;;;;;;9.77;2.95;;;14.40;99.90;;;;;;5052325;28;20446;-74
2023/10/19 06:56:37;;;;;;;13.18;3.42;;;14.40;99.90;;;;;;5052874;28;20029;-74
2023/10/19 06:59:05;;;;;;;9.57;3.00;;;14.40;99.90;;;;;;5051964;28;20017;-74
2023/10/19 07:01:32;;;;;;;9.98;3.22;;;14.50;99.90;;;;;;5054023;28;20029;-74
2023/10/19 07:03:58;;;;;;;11.63;3.30;;;14.50;99.90;;;;;;5052287;28;20029;-73
2023/10/19 07:06:24;;;;;;;12.05;2.83;;;14.50;99.90;;;;;;5034930;28;20057;-74
2023/10/19 07:08:50;;;;;;;8.38;2.97;;;14.50;99.90;;;;;;5052245;28;20021;-73
2023/10/19 07:11:15;;;;;;;11.93;3.60;;;14.50;99.90;;;;;;5053037;28;20520;-73
2023/10/19 07:13:41;;;;;;;6.38;2.60;;;14.50;99.90;;;;;;5052312;28;20120;-73
2023/10/19 07:16:10;;;;;;;9.23;2.53;;;14.50;99.90;;;;;;5050798;28;20494;-73
2023/10/19 07:18:36;;;;;;;9.48;2.17;;;14.60;99.90;;;;;;5052052;28;20111;-73
2023/10/19 07:21:03;;;;;;;11.55;2.63;;;14.50;99.90;;;;;;5052638;28;20017;-73
2023/10/19 07:23:29;;;;;;;8.10;2.72;;;14.60;99.90;;;;;;5051927;28;20025;-73
2023/10/19 07:25:56;;;;;;;7.40;2.70;;;14.60;99.90;;;;;;5051097;28;20082;-74
2023/10/19 07:28:26;;;;;;;7.55;1.98;;;14.60;99.90;;;;;;5050565;28;20489;-74
2023/10/19 07:30:52;;;;;;;11.23;2.50;;;14.60;99.90;;;;;;5058394;28;20105;-74
2023/10/19 07:33:19;;;;;;;9.55;2.20;;;14.60;99.90;;;;;;5051744;28;20100;-74
2023/10/19 07:35:46;;;;;;;8.82;2.08;;;14.60;99.90;;;;;;5052172;28;20033;-74
2023/10/19 07:38:16;;;;;;;10.93;2.50;;;14.70;99.90;;;;;;5051492;28;20355;-73
2023/10/19 07:40:44;;;;;;;9.57;2.53;;;14.70;99.90;;;;;;5048333;28;20029;-73
2023/10/19 07:43:09;;;;;;;8.93;2.20;;;14.70;99.90;;;;;;5047487;28;20041;-74
2023/10/19 07:45:36;;;;;;;9.68;1.92;;;14.70;99.90;;;;;;5051495;28;20505;-73
2023/10/19 07:48:06;;;;;;;10.55;2.72;;;14.70;99.90;;;;;;5048615;28;20040;-73
2023/10/19 07:50:36;;;;;;;11.25;2.17;;;14.70;99.90;;;;;;5059145;28;20523;-73
2023/10/19 07:53:02;;;;;;;7.70;2.13;;;14.70;99.90;;;;;;5049024;28;20043;-73
2023/10/19 07:55:28;;;;;;;11.10;2.13;;;14.80;99.90;;;;;;5052040;28;20044;-73
2023/10/19 07:57:54;;;;;;;8.98;2.03;;;14.80;99.90;;;;;;5049781;28;20509;-73
2023/10/19 08:00:23;;;;;;;10.85;2.15;;;14.80;99.90;;;;;;5051743;28;20497;-74
2023/10/19 08:02:49;;;;;;;9.05;2.40;;;14.80;99.90;;;;;;5048947;28;20445;-72
2023/10/19 08:05:18;;;;;;;8.45;2.10;;;14.80;99.90;;;;;;5043646;28;20064;-72
2023/10/19 08:07:44;;;;;;;7.88;1.90;;;14.90;99.90;;;;;;5051038;28;20079;-73
2023/10/19 08:10:11;;;;;;;10.82;2.38;;;14.90;99.90;;;;;;5052494;28;20065;-73
2023/10/19 08:12:41;;;;;;;15.18;2.78;;;14.90;99.90;;;;;;5049564;28;20450;-73
2023/10/19 08:15:08;;;;;;;10.15;2.67;;;14.90;99.90;;;;;;5060399;28;20031;-73
2023/10/19 08:17:38;;;;;;;11.70;2.80;;;15.00;99.90;;;;;;5036270;28;20387;-73
2023/10/19 08:20:09;;;;;;;8.13;2.47;;;15.00;99.90;;;;;;5051282;28;20079;-73
2023/10/19 08:22:36;;;;;;;10.82;2.78;;;15.00;99.90;;;;;;5049542;28;20036;-74
2023/10/19 08:25:04;;;;;;;12.43;2.78;;;15.00;99.90;;;;;;5049709;28;20036;-73
2023/10/19 08:27:29;;;;;;;14.18;3.60;;;15.00;99.90;;;;;;5049721;28;20053;-73
2023/10/19 08:29:55;;;;;;;10.07;2.40;;;15.00;99.90;;;;;;5050665;28;20017;-73
2023/10/19 08:32:21;;;;;;;9.50;2.33;;;15.00;99.90;;;;;;5050943;28;20044;-73
2023/10/19 08:34:47;;;;;;;12.35;2.60;;;15.10;99.90;;;;;;5050563;28;20055;-73
2023/10/19 08:37:13;;;;;;;10.05;2.92;;;15.10;99.90;;;;;;5049803;28;20056;-73
2023/10/19 08:39:38;;;;;;;13.93;2.78;;;15.10;99.90;;;;;;5050995;28;20505;-74
2023/10/19 08:42:05;;;;;;;8.98;2.53;;;15.10;99.90;;;;;;5050962;28;20383;-73
2023/10/19 08:44:35;;;;;;;6.63;2.58;;;15.10;99.90;;;;;;5050623;28;20021;-74
2023/10/19 08:47:01;;;;;;;13.37;2.77;;;15.10;99.90;;;;;;5050949;28;20020;-73
2023/10/19 08:49:27;;;;;;;10.57;2.70;;;15.20;99.90;;;;;;5050327;28;20028;-73
2023/10/19 08:51:54;;;;;;;14.43;3.13;;;15.20;99.90;;;;;;5050981;28;20071;-73
2023/10/19 08:54:20;;;;;;;16.13;3.65;;;15.30;99.90;;;;;;5050628;28;20056;-73
2023/10/19 08:56:47;;;;;;;11.73;3.20;;;15.30;99.90;;;;;;5050730;28;20032;-73
2023/10/19 08:59:15;;;;;;;12.18;2.47;;;15.30;99.90;;;;;;5044492;28;20465;-72
2023/10/19 09:01:43;;;;;;;8.27;2.42;;;15.30;99.90;;;;;;5043294;28;20083;-72
2023/10/19 09:04:11;;;;;;;9.15;2.45;;;15.30;99.90;;;;;;5049941;28;20478;-73
2023/10/19 09:06:43;;;;;;;15.02;2.72;;;15.40;99.90;;;;;;5050829;28;20302;-72
2023/10/19 09:09:13;;;;;;;9.85;2.60;;;15.40;99.90;;;;;;5047960;28;20017;-72
2023/10/19 09:11:39;;;;;;;12.75;2.53;;;15.40;99.90;;;;;;5050347;28;20028;-72
2023/10/19 09:14:06;;;;;;;11.65;2.65;;;15.40;99.90;;;;;;5049886;28;20029;-72
2023/10/19 09:16:32;;;;;;;10.70;3.03;;;15.50;99.90;;;;;;5050450;28;20450;-73
2023/10/19 09:18:57;;;;;;;14.88;3.08;;;15.50;99.90;;;;;;5049750;28;20031;-73
2023/10/19 09:21:26;;;;;;;11.15;2.55;;;15.60;99.90;;;;;;5050299;28;20377;-72
2023/10/19 09:23:56;;;;;;;16.40;3.40;;;15.60;99.90;;;;;;5049876;28;20052;-73
2023/10/19 09:26:24;;;;;;;9.73;3.38;;;15.60;99.90;;;;;;5050172;28;20033;-73
2023/10/19 09:28:50;;;;;;;11.15;2.70;;;15.60;99.90;;;;;;5049620;28;20029;-73
2023/10/19 09:31:18;;;;;;;10.77;3.80;;;15.70;99.90;;;;;;5050262;28;20020;-72
2023/10/19 09:33:45;;;;;;;10.30;3.70;;;15.60;99.90;;;;;;5049875;28;20029;-72
2023/10/19 09:36:15;;;;;;;13.57;4.13;;;15.70;99.90;;;;;;5048822;28;20029;-72
2023/10/19 09:38:49;;;;;;;12.40;4.57;;;15.70;99.90;;;;;;5049654;28;20029;-72
2023/10/19 09:41:19;;;;;;;10.95;4.00;;;15.80;99.90;;;;;;5049936;28;20025;-72
2023/10/19 09:43:50;;;;;;;19.45;4.57;;;15.80;99.90;;;;;;5038280;28;20393;-72
2023/10/19 09:46:22;;;;;;;14.80;5.15;;;15.80;99.90;;;;;;5049450;28;20020;-72
2023/10/19 09:48:49;;;;;;;11.43;4.60;;;15.90;99.90;;;;;;5031813;28;20035;-73
2023/10/19 09:51:17;;;;;;;12.23;4.20;;;15.90;99.90;;;;;;5048550;28;20040;-72
2023/10/19 09:53:49;;;;;;;12.05;4.50;;;15.90;99.90;;;;;;5049458;28;20158;-72
2023/10/19 09:56:27;;;;;;;10.80;4.75;;;15.90;99.90;;;;;;5049322;28;20033;-72
2023/10/19 09:58:57;;;;;;;12.52;4.50;;;16.00;99.90;;;;;;5047754;28;20489;-72
2023/10/19 10:01:23;;;;;;;;;;;16.10;99.90;;;;;;5050649;28;20032;-72
2023/10/19 10:03:53;;;;;;;11.68;5.43;;;16.20;99.90;;;;;;5049248;28;20395;-72
2023/10/19 10:06:51;;;;;;;8.32;4.10;;;16.20;99.90;;;;;;5049928;28;20078;-72
2023/10/19 10:09:23;;;;;;;10.90;4.15;;;16.30;99.90;;;;;;5047878;28;20032;-72
2023/10/19 10:11:52;;;;;;;14.48;5.20;;;16.40;99.90;;;;;;5053784;28;20021;-72
2023/10/19 10:14:25;;;;;;;13.23;4.82;;;16.50;99.90;;;;;;5053118;28;20032;-72
2023/10/19 10:17:04;;;;;;;14.73;4.78;;;16.50;99.90;;;;;;5053457;28;20017;-72
2023/10/19 10:19:30;;;;;;;10.55;3.72;;;16.60;99.90;;;;;;5053178;28;20100;-72
2023/10/19 10:22:14;;;;;;;15.07;4.50;;;16.70;99.90;;;;;;5053675;28;20474;-72
2023/10/19 10:24:43;;;;;;;13.35;4.53;;;16.70;99.90;;;;;;5053097;28;20047;-73
2023/10/19 10:27:10;;;;;;;13.10;4.07;;;16.80;99.90;;;;;;5045410;28;20389;-72
2023/10/19 10:29:36;;;;;;;11.73;3.67;;;16.90;99.90;;;;;;5052429;28;20482;-73
2023/10/19 10:32:05;;;;;;;12.50;4.38;;;16.90;99.90;;;;;;5053544;28;20039;-73
2023/10/19 10:34:36;;;;;;;17.20;4.40;;;16.90;99.90;;;;;;5051394;28;20025;-72
2023/10/19 10:37:05;;;;;;;11.07;3.88;;;17.00;99.90;;;;;;5053408;28;20037;-72
2023/10/19 10:39:31;;;;;;;9.57;3.83;;;17.00;99.90;;;;;;5051146;28;20541;-72
2023/10/19 10:42:03;;;;;;;13.65;4.00;;;17.00;99.90;;;;;;5053061;28;20502;-73
2023/10/19 10:44:43;;;;;;;11.10;4.10;;;17.00;99.90;;;;;;5050996;28;20013;-73
2023/10/19 10:47:21;;;;;;;14.63;4.07;;;17.10;99.90;;;;;;5053334;28;20083;-72
2023/10/19 10:49:48;;;;;;;13.68;4.43;;;17.10;99.90;;;;;;5052526;28;20027;-73
2023/10/19 10:52:24;;;;;;;10.45;3.53;;;17.10;99.90;;;;;;5052888;28;20486;-73
2023/10/19 10:54:49;;;;;;;15.57;4.47;;;17.10;99.90;;;;;;5051157;28;20060;-72
2023/10/19 10:57:16;;;;;;;16.00;4.40;;;17.20;99.90;;;;;;5052792;28;20057;-72
2023/10/19 10:59:41;;;;;;;16.40;4.15;;;17.20;99.90;;;;;;5052480;28;20405;-72
2023/10/19 11:02:21;;;;;;;16.42;4.45;;;17.20;99.90;;;;;;5052966;28;20025;-72
2023/10/19 11:04:47;;;;;;;14.38;4.13;;;17.20;99.90;;;;;;5051597;28;20029;-73
2023/10/19 11:07:20;;;;;;;9.90;4.40;;;17.30;99.90;;;;;;5053126;28;20123;-73
2023/10/19 11:09:48;;;;;;;11.25;3.95;;;17.30;99.90;;;;;;5052178;28;20039;-73
2023/10/19 11:12:19;;;;;;;16.02;4.05;;;17.30;99.90;;;;;;5052746;28;20382;-73
2023/10/19 11:14:54;;;;;;;15.95;4.18;;;17.30;99.90;;;;;;5049698;28;20037;-73
2023/10/19 11:17:27;;;;;;;15.43;4.20;;;17.30;99.90;;;;;;5046511;28;20025;-73
2023/10/19 11:19:56;;;;;;;14.27;3.90;;;17.40;99.90;;;;;;5051865;28;20424;-73
2023/10/19 11:22:21;;;;;;;12.35;3.42;;;17.40;99.90;;;;;;5051552;28;20025;-73
2023/10/19 11:24:50;;;;;;;16.08;3.47;;;17.40;99.90;;;;;;5050787;28;20544;-73
2023/10/19 11:27:28;;;;;;;17.23;3.80;;;17.50;99.90;;;;;;5052505;28;20025;-73
2023/10/19 11:29:58;;;;;;;8.27;2.90;;;17.60;99.90;;;;;;5051762;28;20052;-72
2023/10/19 11:32:25;;;;;;;11.82;3.38;;;17.60;99.90;;;;;;5052593;28;20025;-73
2023/10/19 11:34:56;;;;;;;13.32;3.35;;;17.60;99.90;;;;;;5051540;28;20485;-73
2023/10/19 11:37:21;;;;;;;;;;;17.60;99.90;;;;;;5052675;28;20029;-73
2023/10/19 11:39:49;;;;;;;14.65;3.50;;;17.60;99.90;;;;;;5051914;28;20412;-73
2023/10/19 11:42:15;;;;;;;7.57;2.92;;;17.60;99.90;;;;;;5051998;28;20049;-73
2023/10/19 11:44:41;;;;;;;11.32;2.80;;;17.60;99.90;;;;;;5059052;28;20029;-73
2023/10/19 11:47:06;;;;;;;11.30;2.55;;;17.60;99.90;;;;;;5051198;28;20446;-73
2023/10/19 11:49:32;;;;;;;13.88;3.75;;;17.60;99.90;;;;;;5045529;28;20371;-73
2023/10/19 11:51:58;;;;;;;11.50;3.10;;;17.70;99.90;;;;;;5051949;28;20048;-73
2023/10/19 11:54:25;;;;;;;9.27;2.40;;;17.70;99.90;;;;;;5051428;28;20470;-73
2023/10/19 11:56:50;;;;;;;11.98;2.95;;;17.80;99.90;;;;;;5051649;28;20496;-73
2023/10/19 11:59:16;;;;;;;14.95;2.97;;;17.80;99.90;;;;;;5051223;28;20013;-73
2023/10/19 12:01:45;;;;;;;12.43;3.05;;;17.90;99.90;;;;;;5051629;28;20378;-73
2023/10/19 12:04:10;;;;;;;8.63;3.10;;;18.00;99.90;;;;;;5051095;28;20031;-72
2023/10/19 12:06:36;;;;;;;15.02;3.20;;;18.00;99.90;;;;;;5051784;28;20100;-73
2023/10/19 12:09:14;;;;;;;10.10;2.30;;;18.10;99.90;;;;;;5051072;28;20033;-73
2023/10/19 12:11:44;;;;;;;11.48;2.67;;;18.10;99.90;;;;;;5051444;28;20052;-73
2023/10/19 12:14:14;;;;;;;11.68;2.55;;;18.10;99.90;;;;;;5052276;28;20025;-73
2023/10/19 12:16:40;;;;;;;12.43;2.38;;;18.10;99.90;;;;;;5051733;28;20037;-73
2023/10/19 12:19:07;;;;;;;8.60;2.78;;;18.10;99.90;;;;;;5050261;28;20037;-73
2023/10/19 12:21:33;;;;;;;8.95;3.40;;;18.10;99.90;;;;;;5047707;28;20486;-73
2023/10/19 12:24:01;;;;;;;9.52;3.22;;;18.10;99.90;;;;;;5038208;28;20025;-73
2023/10/19 12:26:27;;;;;;;6.57;3.28;;;18.10;99.90;;;;;;5039124;28;20276;-73
2023/10/19 12:28:52;;;;;;;8.50;2.85;;;18.10;99.90;;;;;;5038746;28;20040;-73
2023/10/19 12:31:18;;;;;;;13.25;2.95;;;18.10;99.90;;;;;;5039869;28;20508;-72
2023/10/19 12:33:44;;;;;;;10.48;1.92;;;18.10;99.90;;;;;;5038511;28;20032;-72
2023/10/19 12:38:55;;;;;;;12.10;2.30;;;18.10;99.90;;;;;;5037763;28;20044;-73
2023/10/19 12:41:21;;;;;;;15.15;2.03;;;18.00;99.90;;;;;;5039860;28;20392;-72
2023/10/19 12:43:48;;;;;;;7.88;1.90;;;18.00;99.90;;;;;;5038495;28;20059;-72
2023/10/19 12:46:15;;;;;;;9.70;1.95;;;18.00;99.90;;;;;;5038936;28;20032;-73
2023/10/19 12:48:46;;;;;;;10.18;2.70;;;17.90;99.90;;;;;;5038166;28;20025;-73
2023/10/19 12:51:13;;;;;;;12.13;2.60;;;17.90;99.90;;;;;;5039288;28;20500;-73
2023/10/19 12:53:39;;;;;;;10.07;2.15;;;17.90;99.90;;;;;;5039122;28;20147;-73
2023/10/19 12:56:05;;;;;;;11.95;2.72;;;17.90;99.90;;;;;;5039571;28;20375;-73
2023/10/19 12:58:32;;;;;;;12.93;2.63;;;17.80;99.90;;;;;;5038211;28;20052;-73
2023/10/19 13:00:58;;;;;;;8.23;2.00;;;17.80;99.90;;;;;;5038087;28;20391;-71
2023/10/19 13:03:27;;;;;;;14.02;2.45;;;17.80;99.90;;;;;;5038884;28;20498;-72
2023/10/19 13:05:53;;;;;;;8.90;2.38;;;17.80;99.90;;;;;;5038963;28;20029;-72
2023/10/19 13:08:19;;;;;;;6.72;1.85;;;17.80;99.90;;;;;;5038173;28;20186;-72
2023/10/19 13:10:48;;;;;;;9.68;2.45;;;17.80;99.90;;;;;;5038675;28;20572;-72
2023/10/19 13:13:14;;;;;;;10.30;2.50;;;17.80;99.90;;;;;;5038514;28;20037;-72
2023/10/19 13:15:44;;;;;;;9.75;2.60;;;17.80;99.90;;;;;;5037940;28;20040;-72
2023/10/19 13:18:10;;;;;;;12.80;3.00;;;17.80;99.90;;;;;;5037421;28;20029;-73
2023/10/19 13:20:38;;;;;;;10.30;2.00;;;17.80;99.90;;;;;;5037907;28;20032;-74